Time;durP1;ratioP1;P1;durP2;ratioP2;P2;SDS_P1;SDS_P2;PMS_P1;PMS_P2;Temp;Humidity;BMP_temperature;BMP_pressure;BME280_temperature;BME280_humidity;BME280_pressure;Samples;Min_cycle;Max_cycle;Signal;HPM_P1;HPM_P2
2023/05/29 00:00:13;;;;;;;3.97;3.60;;;;;;;13.09;100.00;63347.69;5132510;27;20215;-82
2023/05/29 00:02:44;;;;;;;6.25;3.88;;;;;;;13.18;100.00;63357.03;5122726;28;20223;-82
2023/05/29 00:05:11;;;;;;;5.20;4.25;;;;;;;13.20;100.00;63359.63;5135652;28;20505;-80
2023/05/29 00:07:39;;;;;;;14.73;4.50;;;;;;;13.22;100.00;63361.69;5132407;28;20264;-81
2023/05/29 00:10:10;;;;;;;4.43;3.85;;;;;;;13.14;100.00;63352.88;5119649;28;20196;-81
2023/05/29 00:12:39;;;;;;;4.30;3.90;;;;;;;13.11;100.00;63350.28;5133291;28;20239;-83
2023/05/29 00:15:07;;;;;;;4.70;3.80;;;;;;;13.14;100.00;63355.44;5132083;28;20199;-82
2023/05/29 00:17:34;;;;;;;4.47;4.10;;;;;;;13.10;100.00;63349.25;5131472;28;20596;-82
2023/05/29 00:20:03;;;;;;;4.43;4.10;;;;;;;13.10;100.00;63351.78;5119432;28;20196;-80
2023/05/29 00:22:32;;;;;;;4.07;3.78;;;;;;;13.15;100.00;63353.91;5110325;28;20253;-82
2023/05/29 00:24:59;;;;;;;5.65;4.22;;;;;;;12.99;100.00;63340.38;5111340;28;20195;-82
2023/05/29 00:27:29;;;;;;;5.80;4.75;;;;;;;13.16;100.00;63358.03;5112000;28;20239;-82
2023/05/29 00:29:56;;;;;;;4.35;4.05;;;;;;;13.02;100.00;63340.94;5126713;28;20219;-83
2023/05/29 00:32:23;;;;;;;7.65;4.32;;;;;;;13.11;100.00;63349.75;5129804;28;20249;-82
2023/05/29 00:34:51;;;;;;;5.57;4.43;;;;;;;13.16;100.00;63355.47;5131775;28;20535;-81
2023/05/29 00:37:18;;;;;;;5.43;4.15;;;;;;;13.12;100.00;63353.88;5127619;28;20220;-81
2023/05/29 00:39:45;;;;;;;4.28;3.80;;;;;;;13.11;100.00;63352.84;5129102;28;20199;-81
2023/05/29 00:42:12;;;;;;;4.80;4.45;;;;;;;13.12;100.00;63351.31;5133150;27;20254;-82
2023/05/29 00:44:40;;;;;;;7.47;4.28;;;;;;;13.14;100.00;63355.44;5131483;28;20195;-79
2023/05/29 00:47:08;;;;;;;5.43;4.35;;;;;;;13.09;100.00;63350.78;5122789;28;20222;-82
2023/05/29 00:49:36;;;;;;;7.32;4.32;;;;;;;13.11;100.00;63352.31;5111898;28;20200;-82
2023/05/29 00:52:06;;;;;;;4.80;4.40;;;;;;;13.06;100.00;63345.09;5109679;28;20291;-82
2023/05/29 00:54:35;;;;;;;5.53;5.13;;;;;;;13.05;100.00;63346.09;5111747;28;20217;-82
2023/05/29 00:57:03;;;;;;;4.70;4.40;;;;;;;13.03;100.00;63344.53;5109582;28;20216;-81
2023/05/29 00:59:32;;;;;;;6.03;5.53;;;;;;;13.06;100.00;63349.69;5112420;28;20192;-81
2023/05/29 01:02:03;;;;;;;5.30;4.80;;;;;;;13.02;100.00;63345.53;5110200;28;20212;-83
2023/05/29 01:04:33;;;;;;;5.15;4.55;;;;;;;12.99;100.00;63337.31;5112414;28;20196;-80
2023/05/29 01:07:02;;;;;;;4.47;4.18;;;;;;;13.03;100.00;63341.47;5126404;28;20535;-82
2023/05/29 01:09:30;;;;;;;7.32;4.60;;;;;;;13.00;100.00;63340.88;5132105;28;20197;-83
2023/05/29 01:12:08;;;;;;;5.95;4.78;;;;;;;12.98;100.00;63341.88;5131048;28;20238;-82
2023/05/29 01:14:46;;;;;;;9.45;4.65;;;;;;;13.01;100.00;63342.44;5124212;28;20215;-82
2023/05/29 01:17:21;;;;;;;5.90;4.70;;;;;;;12.97;100.00;63338.31;5109918;28;20226;-81
2023/05/29 01:20:13;;;;;;;4.50;3.97;;;;;;;12.94;100.00;63334.66;5108271;28;20190;-82
2023/05/29 01:22:59;;;;;;;5.43;4.90;;;;;;;12.91;100.00;63334.13;5109362;28;20220;-82
2023/05/29 01:25:42;;;;;;;4.80;4.35;;;;;;;12.78;100.00;63319.13;5119603;28;20199;-81
2023/05/29 01:28:13;;;;;;;4.90;4.50;;;;;;;12.83;100.00;63321.22;5131302;28;20272;-83
2023/05/29 01:30:42;;;;;;;4.70;4.30;;;;;;;12.76;100.00;63317.03;5133625;28;20191;-82
2023/05/29 01:33:10;;;;;;;7.80;4.60;;;;;;;12.78;100.00;63321.16;5129272;28;20223;-80
2023/05/29 01:35:37;;;;;;;6.32;4.70;;;;;;;12.91;100.00;63332.06;5117068;28;20416;-81
2023/05/29 01:38:04;;;;;;;5.63;4.10;;;;;;;12.89;100.00;63327.44;5130070;28;20215;-81
2023/05/29 01:40:31;;;;;;;6.70;4.40;;;;;;;12.80;100.00;63321.19;5132385;28;20244;-83
2023/05/29 01:42:58;;;;;;;5.65;5.00;;;;;;;12.87;100.00;63325.38;5115594;28;20279;-83
2023/05/29 01:45:28;;;;;;;4.82;4.43;;;;;;;12.99;100.00;63339.84;5109384;28;20211;-81
2023/05/29 01:47:55;;;;;;;4.97;4.35;;;;;;;12.99;100.00;63339.84;5109236;28;20211;-81
2023/05/29 01:50:25;;;;;;;5.32;4.70;;;;;;;12.98;100.00;63336.28;5111759;28;20207;-81
2023/05/29 01:52:52;;;;;;;5.57;5.13;;;;;;;13.01;100.00;63342.44;5110132;28;20227;-81
2023/05/29 01:55:19;;;;;;;5.55;5.05;;;;;;;13.05;100.00;63343.53;5129184;28;20205;-80
2023/05/29 01:57:50;;;;;;;5.80;5.32;;;;;;;13.03;100.00;63341.97;5131780;28;20215;-81
2023/05/29 02:00:18;;;;;;;7.72;5.78;;;;;;;12.95;100.00;63335.69;5122969;28;20220;-80
2023/05/29 02:02:48;;;;;;;5.88;5.40;;;;;;;13.01;100.00;63342.44;5111680;28;20239;-82
2023/05/29 02:05:15;;;;;;;7.32;5.78;;;;;;;13.09;100.00;63350.25;5108610;28;20535;-81
2023/05/29 02:07:42;;;;;;;6.18;5.65;;;;;;;13.20;100.00;63364.22;5109395;28;20227;-81
2023/05/29 02:10:10;;;;;;;6.72;6.07;;;;;;;13.28;100.00;63370.47;5108543;28;20259;-81
2023/05/29 02:12:38;;;;;;;7.80;5.55;;;;;;;13.27;100.00;63368.94;5112440;28;20259;-82
2023/05/29 02:15:07;;;;;;;9.65;5.60;;;;;;;13.32;100.00;63369.00;5111941;28;20226;-83
2023/05/29 02:17:34;;;;;;;6.30;5.70;;;;;;;13.32;100.00;63371.56;5112090;28;20243;-80
2023/05/29 02:20:04;;;;;;;5.65;5.13;;;;;;;13.37;100.00;63374.72;5108798;28;20445;-82
2023/05/29 02:22:31;;;;;;;5.55;4.82;;;;;;;13.32;100.00;63374.13;5109169;28;20212;-82
2023/05/29 02:24:58;;;;;;;5.25;4.75;;;;;;;13.36;100.00;63376.22;5108158;28;20222;-82
2023/05/29 02:27:25;;;;;;;6.65;5.55;;;;;;;13.37;100.00;63382.38;5109610;28;20226;-83
2023/05/29 02:29:54;;;;;;;5.32;4.93;;;;;;;13.34;100.00;63374.13;5117842;28;20200;-82
2023/05/29 02:32:22;;;;;;;6.00;5.50;;;;;;;13.31;100.00;63373.06;5112086;28;20228;-83
2023/05/29 02:34:50;;;;;;;9.10;5.18;;;;;;;12.92;100.00;63330.56;5115317;28;20376;-81
2023/05/29 02:37:19;;;;;;;8.68;4.97;;;;;;;13.26;100.00;63368.41;5111977;28;20215;-81
2023/05/29 02:39:46;;;;;;;6.40;4.78;;;;;;;13.30;100.00;63374.59;5129294;27;20285;-81
2023/05/29 02:42:13;;;;;;;9.07;5.05;;;;;;;13.26;100.00;63365.84;5132522;28;20235;-81
2023/05/29 02:44:40;;;;;;;4.35;3.92;;;;;;;13.16;100.00;63357.50;5134183;28;20227;-81
2023/05/29 02:47:07;;;;;;;6.13;5.05;;;;;;;12.86;100.00;63323.81;5116762;28;20235;-80
2023/05/29 02:49:34;;;;;;;5.15;4.75;;;;;;;13.05;100.00;63341.50;5114536;28;20196;-81
2023/05/29 02:52:01;;;;;;;7.50;4.35;;;;;;;13.07;100.00;63345.59;5117917;28;20287;-82
2023/05/29 02:54:30;;;;;;;8.13;4.85;;;;;;;13.06;100.00;63349.69;5113276;28;20205;-82
2023/05/29 02:56:57;;;;;;;5.68;4.80;;;;;;;13.02;100.00;63345.53;5122424;28;20245;-81
2023/05/29 02:59:24;;;;;;;8.05;4.90;;;;;;;13.02;100.00;63343.50;5135186;28;20223;-82
2023/05/29 03:01:52;;;;;;;5.45;5.00;;;;;;;13.02;100.00;63342.97;5134975;28;20517;-82
2023/05/29 03:04:19;;;;;;;5.88;5.28;;;;;;;12.95;100.00;63333.16;5119493;28;20200;-81
2023/05/29 03:06:47;;;;;;;6.63;4.93;;;;;;;13.02;100.00;63345.53;5125098;28;20298;-82
2023/05/29 03:09:15;;;;;;;6.10;5.55;;;;;;;13.10;100.00;63351.28;5131996;28;20199;-83
2023/05/29 03:11:44;;;;;;;6.05;5.45;;;;;;;13.19;100.00;63363.69;5135998;28;20235;-82
2023/05/29 03:14:11;;;;;;;6.32;5.15;;;;;;;13.19;100.00;63366.25;5113706;28;20219;-82
2023/05/29 03:16:38;;;;;;;5.68;5.20;;;;;;;13.25;100.00;63366.84;5115731;28;20544;-81
2023/05/29 03:19:05;;;;;;;6.22;5.72;;;;;;;13.32;100.00;63374.63;5111378;28;20208;-81
2023/05/29 03:21:32;;;;;;;5.80;5.30;;;;;;;13.40;100.00;63382.94;5111780;28;20328;-80
2023/05/29 03:23:59;;;;;;;5.30;4.80;;;;;;;13.42;100.00;63385.00;5111804;28;20309;-83
2023/05/29 03:26:27;;;;;;;6.95;5.00;;;;;;;13.41;100.00;63380.88;5114206;28;20243;-82
2023/05/29 03:28:56;;;;;;;8.02;5.03;;;;;;;13.46;100.00;63391.19;5115518;28;20196;-82
2023/05/29 03:31:23;;;;;;;5.35;4.88;;;;;;;13.71;100.00;63415.09;5123445;28;20208;-81
2023/05/29 03:33:50;;;;;;;6.85;4.78;;;;;;;13.69;100.00;63413.03;5125578;28;20235;-81
2023/05/29 03:36:17;;;;;;;9.50;5.20;;;;;;;13.76;100.00;63415.19;5133498;28;20204;-82
2023/05/29 03:38:45;;;;;;;4.30;4.00;;;;;;;13.94;100.00;63435.91;5133099;28;20297;-83
2023/05/29 03:41:12;;;;;;;4.68;4.28;;;;;;;14.07;100.00;63456.53;5129639;28;20219;-81
2023/05/29 03:43:39;;;;;;;4.85;4.40;;;;;;;14.15;100.00;63460.25;5111386;28;20215;-81
2023/05/29 03:46:07;;;;;;;7.95;4.75;;;;;;;14.15;100.00;63460.25;5114960;28;20225;-82
2023/05/29 03:48:34;;;;;;;5.10;3.75;;;;;;;14.47;100.00;63488.38;5114393;28;20197;-81
2023/05/29 03:51:01;;;;;;;5.15;4.75;;;;;;;14.65;100.00;63512.19;5124981;28;20263;-81
2023/05/29 03:53:28;;;;;;;6.70;3.92;;;;;;;14.77;100.00;63522.09;5116240;28;20219;-81
2023/05/29 03:55:55;;;;;;;10.93;4.30;;;;;;;14.94;100.00;63542.31;5113620;28;20251;-81
2023/05/29 03:58:22;;;;;;;4.18;3.78;;;;;;;15.01;100.00;63549.59;5113722;28;20211;-81
2023/05/29 04:00:49;;;;;;;3.95;3.63;;;;;;;15.15;100.00;63557.97;5124555;28;20195;-79
2023/05/29 04:03:18;;;;;;;4.50;3.88;;;;;;;15.22;100.00;63568.31;5127753;28;20496;-80
2023/05/29 04:05:44;;;;;;;5.00;4.63;;;;;;;15.32;100.00;63580.78;5123136;28;20201;-79
2023/05/29 04:08:13;;;;;;;4.18;3.88;;;;;;;15.38;100.00;63590.09;5123765;28;20214;-81
2023/05/29 04:10:39;;;;;;;4.60;4.20;;;;;;;15.31;100.00;63577.69;5112712;28;20203;-78
2023/05/29 04:13:07;;;;;;;4.03;3.78;;;;;;;15.52;100.00;63599.53;5110883;28;20235;-81
2023/05/29 04:15:34;;;;;;;4.60;4.22;;;;;;;15.55;100.00;63604.72;5113524;28;20199;-82
2023/05/29 04:18:01;;;;;;;6.60;4.15;;;;;;;15.67;100.00;63615.13;5110328;28;20297;-81
2023/05/29 04:20:30;;;;;;;6.13;4.40;;;;;;;15.75;100.00;63628.06;5110212;28;20198;-81
2023/05/29 04:22:57;;;;;;;4.82;3.80;;;;;;;15.76;100.00;63623.97;5111306;28;20558;-82
2023/05/29 04:25:24;;;;;;;4.10;3.75;;;;;;;15.90;100.00;63644.19;5112346;28;20558;-81
2023/05/29 04:27:51;;;;;;;3.83;3.53;;;;;;;16.05;100.00;63661.81;5118693;28;20236;-81
2023/05/29 04:30:18;;;;;;;4.05;3.70;;;;;;;16.08;100.00;63657.75;5134150;28;20254;-80
2023/05/29 04:32:46;;;;;;;3.65;3.10;;;;;;;16.16;100.00;63671.22;5124719;28;20567;-82
2023/05/29 04:35:13;;;;;;;3.38;3.08;;;;;;;16.19;100.00;63674.34;5116969;28;20195;-81
2023/05/29 04:37:44;;;;;;;3.95;3.53;;;;;;;16.30;100.00;63679.59;5111292;28;20215;-81
2023/05/29 04:40:11;;;;;;;3.38;3.17;;;;;;;16.40;100.00;63690.00;5111205;28;20274;-81
2023/05/29 04:42:40;;;;;;;5.10;4.28;;;;;;;16.40;100.00;63690.00;5114735;28;20225;-81
2023/05/29 04:45:09;;;;;;;9.02;4.72;;;;;;;16.16;100.00;63665.56;5125147;28;20195;-80
2023/05/29 04:47:43;;;;;;;5.55;4.85;;;;;;;16.29;100.00;63679.06;5130822;28;20215;-82
2023/05/29 04:50:11;;;;;;;4.72;4.32;;;;;;;16.63;100.00;63717.06;5117545;28;20199;-82
2023/05/29 04:52:39;;;;;;;5.15;4.18;;;;;;;16.81;100.00;63737.81;5119243;28;20223;-81
2023/05/29 04:55:08;;;;;;;4.78;3.90;;;;;;;17.09;100.00;63764.38;5109293;28;20199;-80
2023/05/29 04:57:35;;;;;;;3.88;3.63;;;;;;;17.34;100.00;63796.09;5110350;28;20215;-80
2023/05/29 05:00:03;;;;;;;4.80;3.22;;;;;;;17.48;100.00;63804.50;5111332;28;20198;-81
2023/05/29 05:02:30;;;;;;;3.50;3.20;;;;;;;17.40;100.00;63798.72;5119582;28;20239;-82
2023/05/29 05:04:57;;;;;;;2.95;2.75;;;;;;;17.54;100.00;63811.25;5125986;28;20215;-80
2023/05/29 05:07:24;;;;;;;4.03;3.08;;;;;;;17.85;100.00;63840.97;5133734;28;20218;-82
2023/05/29 05:09:51;;;;;;;3.72;3.03;;;;;;;18.09;100.00;63868.53;5130029;28;20199;-80
2023/05/29 05:12:19;;;;;;;5.32;3.60;;;;;;;18.09;100.00;63870.59;5129260;28;20609;-81
2023/05/29 05:14:46;;;;;;;2.70;2.50;;;;;;;18.03;98.79;63867.44;5133525;28;20195;-80
2023/05/29 05:17:13;;;;;;;2.90;2.47;;;;;;;18.29;97.80;63891.44;5128281;28;20229;-79
2023/05/29 05:19:40;;;;;;;3.90;2.90;;;;;;;18.10;97.70;63866.50;5124094;28;20203;-82
2023/05/29 05:22:07;;;;;;;3.15;2.53;;;;;;;18.28;96.42;63885.75;5108373;28;20294;-81
2023/05/29 05:24:34;;;;;;;3.22;2.45;;;;;;;18.08;94.97;63872.66;5123414;28;20198;-79
2023/05/29 05:27:01;;;;;;;2.65;2.50;;;;;;;18.10;96.11;63869.06;5127414;28;20218;-80
2023/05/29 05:29:29;;;;;;;3.00;2.70;;;;;;;18.27;96.99;63884.72;5128611;28;20207;-80
2023/05/29 05:31:57;;;;;;;4.28;3.80;;;;;;;18.37;98.14;63895.16;5128121;28;20386;-80
2023/05/29 05:34:23;;;;;;;4.90;3.35;;;;;;;18.13;97.35;63875.28;5129089;28;20230;-81
2023/05/29 05:36:50;;;;;;;3.10;2.72;;;;;;;18.08;95.97;63861.81;5115759;28;20254;-79
2023/05/29 05:39:17;;;;;;;3.45;3.17;;;;;;;18.09;96.26;63870.59;5109955;28;20496;-79
2023/05/29 05:41:44;;;;;;;5.70;3.92;;;;;;;18.17;96.15;63878.94;5126316;28;20214;-78
2023/05/29 05:44:11;;;;;;;3.42;3.22;;;;;;;18.39;97.53;63901.84;5130020;28;20190;-80
2023/05/29 05:46:40;;;;;;;4.28;3.53;;;;;;;18.43;95.42;63900.88;5130210;28;20461;-79
2023/05/29 05:49:08;;;;;;;3.75;3.55;;;;;;;18.46;94.32;63906.06;5123705;28;20218;-79
2023/05/29 05:51:35;;;;;;;3.72;3.25;;;;;;;18.39;93.65;63902.38;5107659;28;20268;-78
2023/05/29 05:54:02;;;;;;;3.67;3.47;;;;;;;18.07;93.71;63869.03;5106832;28;20245;-79
2023/05/29 05:56:29;;;;;;;3.83;3.08;;;;;;;17.99;94.31;63863.28;5106720;28;20597;-81
2023/05/29 05:58:57;;;;;;;6.65;2.70;;;;;;;18.06;95.19;63862.84;5111333;28;20195;-79
2023/05/29 06:01:24;;;;;;;2.97;2.78;;;;;;;18.03;92.86;63859.72;5125388;28;20215;-80
2023/05/29 06:03:53;;;;;;;3.78;2.88;;;;;;;17.98;93.56;63856.56;5112682;28;20215;-80
2023/05/29 06:06:20;;;;;;;6.22;3.38;;;;;;;18.00;96.84;63858.66;5106802;28;20222;-79
2023/05/29 06:08:48;;;;;;;6.10;4.80;;;;;;;17.83;100.00;63846.09;5107260;28;20217;-79
2023/05/29 06:11:17;;;;;;;7.97;4.90;;;;;;;17.82;100.00;63843.00;5117864;28;20202;-81
2023/05/29 06:13:44;;;;;;;7.93;5.35;;;;;;;17.87;100.00;63847.69;5131487;28;20230;-80
2023/05/29 06:16:11;;;;;;;10.23;6.75;;;;;;;17.51;100.00;63808.16;5117981;28;20248;-79
2023/05/29 06:18:38;;;;;;;11.60;6.60;;;;;;;17.39;100.00;63797.69;5113958;28;20191;-80
2023/05/29 06:21:07;;;;;;;8.45;5.88;;;;;;;17.38;100.00;63792.00;5118198;28;20191;-78
2023/05/29 06:23:36;;;;;;;6.70;5.95;;;;;;;17.07;100.00;63760.25;5115368;28;20195;-79
2023/05/29 06:26:03;;;;;;;6.88;5.57;;;;;;;17.43;100.00;63801.84;5115568;28;20221;-82
2023/05/29 06:28:30;;;;;;;9.25;5.47;;;;;;;17.58;100.00;63817.47;5120162;28;20188;-79
2023/05/29 06:30:57;;;;;;;5.22;4.72;;;;;;;17.64;100.00;63823.72;5112000;28;20202;-80
2023/05/29 06:33:24;;;;;;;6.00;5.50;;;;;;;17.83;100.00;63838.88;5123239;28;20265;-80
2023/05/29 06:35:50;;;;;;;5.22;4.70;;;;;;;17.82;100.00;63832.69;5116548;28;20191;-79
2023/05/29 06:38:20;;;;;;;5.85;4.78;;;;;;;17.84;100.00;63839.94;5117156;28;20191;-80
2023/05/29 06:40:47;;;;;;;5.22;4.72;;;;;;;18.11;100.00;63875.78;5124052;28;20192;-81
2023/05/29 06:43:21;;;;;;;5.93;4.45;;;;;;;18.49;100.00;63909.19;5121729;28;20251;-83
2023/05/29 06:45:48;;;;;;;8.55;4.47;;;;;;;19.05;96.31;63967.56;5117702;28;20225;-81
2023/05/29 06:48:15;;;;;;;6.78;5.03;;;;;;;18.99;94.16;63963.88;5116540;28;20195;-81
2023/05/29 06:50:43;;;;;;;5.50;4.07;;;;;;;19.07;92.29;63972.75;5118325;28;20200;-80
2023/05/29 06:53:10;;;;;;;7.00;5.07;;;;;;;18.90;91.69;63949.34;5108679;28;20266;-79
2023/05/29 06:55:40;;;;;;;4.47;4.07;;;;;;;18.66;95.00;63932.59;5109779;28;20208;-82
2023/05/29 06:58:07;;;;;;;4.57;4.13;;;;;;;18.98;93.25;63960.28;5109803;28;20211;-78
2023/05/29 07:00:34;;;;;;;6.80;4.15;;;;;;;18.89;91.27;63948.31;5109017;28;20207;-80
2023/05/29 07:03:01;;;;;;;4.18;3.85;;;;;;;18.53;93.69;63910.78;5117443;28;20222;-80
2023/05/29 07:05:28;;;;;;;7.63;3.83;;;;;;;18.28;95.69;63885.22;5118025;28;20375;-80
2023/05/29 07:07:55;;;;;;;3.60;3.30;;;;;;;18.44;93.11;63904.50;5131825;28;20219;-80
2023/05/29 07:10:22;;;;;;;5.40;3.60;;;;;;;18.76;92.29;63934.75;5131695;28;20194;-79
2023/05/29 07:12:51;;;;;;;3.20;2.90;;;;;;;18.75;89.43;63938.88;5126148;28;20214;-81
2023/05/29 07:15:18;;;;;;;3.63;2.45;;;;;;;18.80;85.03;63947.19;5109166;28;20207;-79
2023/05/29 07:17:45;;;;;;;2.65;2.45;;;;;;;18.95;84.39;63957.13;5131178;28;20214;-81
2023/05/29 07:20:14;;;;;;;3.63;2.67;;;;;;;19.59;80.65;64025.97;5135020;28;20229;-81
2023/05/29 07:22:42;;;;;;;2.33;2.20;;;;;;;20.05;73.84;64069.28;5134532;28;20275;-80
2023/05/29 07:25:09;;;;;;;2.45;2.22;;;;;;;20.37;71.95;64109.94;5134954;28;20199;-81
2023/05/29 07:27:36;;;;;;;2.50;2.40;;;;;;;19.90;80.14;64056.22;5133518;28;20238;-81
2023/05/29 07:30:06;;;;;;;2.42;2.22;;;;;;;19.48;84.08;64009.84;5126150;28;20194;-80
2023/05/29 07:32:34;;;;;;;2.25;2.15;;;;;;;19.69;82.86;64031.22;5129134;28;20207;-80
2023/05/29 07:35:01;;;;;;;3.40;2.75;;;;;;;19.30;86.78;63993.66;5123275;28;20452;-80
2023/05/29 07:37:29;;;;;;;2.97;2.38;;;;;;;19.52;85.32;64019.69;5132381;28;20240;-82
2023/05/29 07:39:56;;;;;;;2.58;2.38;;;;;;;19.80;86.34;64042.69;5127329;28;20195;-81
2023/05/29 07:42:24;;;;;;;3.10;2.90;;;;;;;19.54;84.09;64018.69;5130639;28;20214;-81
2023/05/29 07:44:51;;;;;;;3.47;2.80;;;;;;;19.14;88.48;63979.53;5133797;28;20207;-80
2023/05/29 07:47:20;;;;;;;3.10;2.45;;;;;;;18.58;89.73;63921.16;5111283;28;20219;-81
2023/05/29 07:49:46;;;;;;;2.63;2.50;;;;;;;18.60;92.18;63921.19;5132651;28;20496;-79
2023/05/29 07:52:16;;;;;;;6.03;2.92;;;;;;;18.44;92.38;63904.50;5132079;28;20259;-79
2023/05/29 07:54:43;;;;;;;3.00;2.80;;;;;;;18.85;89.37;63944.66;5131582;27;20248;-79
2023/05/29 07:57:10;;;;;;;6.75;2.47;;;;;;;19.29;85.75;63995.19;5130506;27;20221;-81
2023/05/29 07:59:38;;;;;;;5.28;3.28;;;;;;;19.15;87.70;63983.69;5132847;28;20194;-82
2023/05/29 08:02:05;;;;;;;3.17;2.75;;;;;;;19.59;84.54;64018.22;5131133;28;20549;-81
2023/05/29 08:04:33;;;;;;;4.15;2.88;;;;;;;19.91;80.33;64054.16;5120215;28;20266;-81
2023/05/29 08:07:03;;;;;;;3.03;2.65;;;;;;;20.36;80.94;64101.16;5112153;28;20224;-81
2023/05/29 08:09:30;;;;;;;3.35;2.42;;;;;;;20.52;78.21;64117.81;5113449;28;20209;-80
2023/05/29 08:11:59;;;;;;;2.78;2.65;;;;;;;20.16;79.47;64080.78;5112069;28;20539;-80
2023/05/29 08:14:26;;;;;;;2.83;2.63;;;;;;;20.06;82.09;64072.41;5112271;28;20227;-82
2023/05/29 08:16:53;;;;;;;5.63;3.15;;;;;;;19.64;80.82;64028.59;5108825;28;20223;-81
2023/05/29 08:19:20;;;;;;;2.97;2.65;;;;;;;19.66;82.52;64030.66;5110567;28;20218;-81
2023/05/29 08:21:49;;;;;;;4.63;2.90;;;;;;;19.50;84.57;64012.44;5110362;28;20231;-82
2023/05/29 08:24:16;;;;;;;3.38;3.00;;;;;;;20.10;78.68;64079.16;5123053;28;20260;-81
2023/05/29 08:26:44;;;;;;;3.80;2.30;;;;;;;20.46;75.25;64111.56;5129671;28;20542;-81
2023/05/29 08:29:11;;;;;;;2.65;2.53;;;;;;;20.76;72.92;64147.56;5127611;28;20228;-82
2023/05/29 08:31:38;;;;;;;2.92;2.75;;;;;;;21.13;69.07;64184.13;5129405;28;20234;-81
2023/05/29 08:34:06;;;;;;;2.95;2.85;;;;;;;21.10;67.38;64183.06;5112579;28;20230;-79
2023/05/29 08:36:33;;;;;;;3.67;3.00;;;;;;;20.51;71.85;64124.56;5110946;28;20216;-80
2023/05/29 08:39:02;;;;;;;3.55;3.13;;;;;;;20.47;76.48;64117.78;5114762;28;20196;-81
2023/05/29 08:41:42;;;;;;;4.47;3.60;;;;;;;20.17;81.07;64079.25;5108864;28;20534;-79
2023/05/29 08:44:14;;;;;;;6.70;3.58;;;;;;;19.96;84.19;64061.97;5108582;28;20551;-80
2023/05/29 08:46:42;;;;;;;3.17;2.95;;;;;;;20.22;81.65;64089.13;5109421;28;20253;-81
2023/05/29 08:49:11;;;;;;;3.13;2.85;;;;;;;20.24;78.18;64091.22;5110388;28;20504;-82
2023/05/29 08:51:43;;;;;;;3.50;3.20;;;;;;;20.39;78.36;64104.78;5113772;28;20227;-82
2023/05/29 08:54:13;;;;;;;7.13;3.30;;;;;;;20.01;74.60;64064.59;5117692;28;20229;-82
2023/05/29 08:56:40;;;;;;;3.67;3.38;;;;;;;20.19;74.88;64083.41;5126389;28;20223;-81
2023/05/29 08:59:08;;;;;;;3.08;2.88;;;;;;;20.14;76.21;64080.75;5126335;28;20191;-80
2023/05/29 09:01:38;;;;;;;3.63;3.30;;;;;;;19.73;77.62;64041.06;5119381;28;20239;-81
2023/05/29 09:04:05;;;;;;;4.50;4.13;;;;;;;19.14;80.80;63982.63;5117168;28;20255;-81
2023/05/29 09:06:33;;;;;;;3.60;3.38;;;;;;;19.12;80.35;63975.38;5126469;28;20263;-79
2023/05/29 09:09:01;;;;;;;3.40;3.20;;;;;;;18.98;82.48;63960.28;5112235;28;20200;-80
2023/05/29 09:11:29;;;;;;;3.22;3.03;;;;;;;19.05;83.01;63965.00;5116113;28;20239;-82
2023/05/29 09:13:59;;;;;;;6.57;3.03;;;;;;;19.03;79.00;63962.91;5121149;28;20230;-82
2023/05/29 09:16:26;;;;;;;3.30;3.10;;;;;;;19.30;79.12;63991.06;5114947;28;20216;-81
2023/05/29 09:18:53;;;;;;;3.53;3.22;;;;;;;18.93;84.78;63955.06;5114783;28;20199;-81
2023/05/29 09:21:27;;;;;;;4.03;3.40;;;;;;;19.06;83.95;63966.56;5122165;28;20253;-81
2023/05/29 09:23:55;;;;;;;3.20;3.00;;;;;;;19.18;78.60;63979.06;5124150;28;20195;-80
2023/05/29 09:26:23;;;;;;;4.28;3.08;;;;;;;19.28;80.01;63989.47;5116181;28;20226;-81
2023/05/29 09:28:51;;;;;;;3.08;2.80;;;;;;;19.50;78.24;64015.03;5121051;28;20199;-81
2023/05/29 09:31:20;;;;;;;3.65;3.35;;;;;;;19.44;79.59;64008.78;5115969;28;20336;-80
2023/05/29 09:33:51;;;;;;;4.43;2.88;;;;;;;19.38;78.45;64001.97;5121017;28;20198;-82
2023/05/29 09:36:23;;;;;;;4.90;3.00;;;;;;;19.59;77.37;64023.38;5119705;28;20216;-82
2023/05/29 09:38:51;;;;;;;3.20;2.92;;;;;;;19.99;78.56;64065.09;5114114;28;20191;-84
2023/05/29 09:41:23;;;;;;;3.53;2.65;;;;;;;20.37;75.28;64107.34;5117267;28;20222;-82
2023/05/29 09:43:53;;;;;;;7.93;2.70;;;;;;;20.90;69.90;64160.09;5108156;28;20198;-84
2023/05/29 09:46:21;;;;;;;2.88;2.70;;;;;;;21.31;66.33;64202.41;5109019;28;20262;-83
2023/05/29 09:48:49;;;;;;;5.47;3.15;;;;;;;21.52;61.92;64226.91;5113148;28;20197;-81
2023/05/29 09:51:23;;;;;;;3.00;2.80;;;;;;;21.60;60.88;64237.88;5114034;28;20278;-81
2023/05/29 09:53:51;;;;;;;2.97;2.75;;;;;;;21.74;60.05;64249.91;5115532;28;20190;-82
2023/05/29 09:56:18;;;;;;;6.35;3.35;;;;;;;21.89;57.95;64268.19;5130581;28;20214;-82
2023/05/29 09:58:47;;;;;;;2.60;2.40;;;;;;;21.91;58.05;64262.50;5115092;28;20203;-81
2023/05/29 10:01:16;;;;;;;2.80;2.60;;;;;;;22.16;57.00;64288.63;5124311;28;20210;-83
2023/05/29 10:03:43;;;;;;;3.10;2.90;;;;;;;21.57;56.80;64229.56;5134186;28;20210;-79
2023/05/29 10:06:15;;;;;;;3.08;2.85;;;;;;;21.25;58.50;64193.53;5132342;28;20459;-82
2023/05/29 10:08:49;;;;;;;3.28;3.03;;;;;;;21.29;60.33;64200.31;5128871;28;20197;-82
2023/05/29 10:11:24;;;;;;;2.63;2.40;;;;;;;21.55;59.53;64227.47;5128991;28;20270;-82
2023/05/29 10:13:53;;;;;;;2.70;2.50;;;;;;;21.80;56.27;64256.19;5129711;28;20495;-81
2023/05/29 10:16:23;;;;;;;6.15;3.05;;;;;;;22.06;55.79;64280.25;5120619;28;20219;-81
2023/05/29 10:18:56;;;;;;;2.78;2.60;;;;;;;21.65;58.01;64237.91;5109760;28;20383;-81
2023/05/29 10:21:26;;;;;;;3.05;2.60;;;;;;;21.78;56.70;64251.50;5114291;28;20252;-82
2023/05/29 10:23:56;;;;;;;3.22;2.92;;;;;;;21.72;58.46;64245.25;5112028;28;20215;-82
2023/05/29 10:26:26;;;;;;;3.45;2.33;;;;;;;22.07;56.71;64281.31;5109466;28;20218;-82
2023/05/29 10:29:09;;;;;;;15.50;8.38;;;;;;;22.57;55.56;64331.00;5110997;28;20183;-81
2023/05/29 10:31:59;;;;;;;28.83;20.60;;;;;;;22.90;52.10;64366.00;5130060;28;20238;-80
2023/05/29 10:34:36;;;;;;;2.95;2.72;;;;;;;22.65;51.82;64336.75;5133021;28;20218;-81
2023/05/29 10:37:09;;;;;;;3.20;3.00;;;;;;;22.59;53.43;64335.69;5132836;28;20217;-83
2023/05/29 10:39:36;;;;;;;7.28;3.05;;;;;;;23.08;51.48;64383.78;5131098;28;20183;-81
2023/05/29 10:42:24;;;;;;;2.70;2.50;;;;;;;22.78;53.00;64356.06;5127977;28;20218;-83
2023/05/29 10:44:52;;;;;;;3.30;3.00;;;;;;;22.56;52.62;64329.94;5127305;28;20247;-82
2023/05/29 10:47:26;;;;;;;5.30;2.63;;;;;;;22.63;51.45;64345.56;5129634;28;20404;-80
2023/05/29 10:49:53;;;;;;;3.85;3.35;;;;;;;21.95;53.48;64266.69;5131070;28;20191;-80
2023/05/29 10:52:21;;;;;;;3.53;3.03;;;;;;;21.66;59.38;64238.97;5130460;28;20215;-80
2023/05/29 10:54:53;;;;;;;5.43;3.47;;;;;;;21.15;72.47;64183.09;5133584;28;20226;-79
2023/05/29 10:57:23;;;;;;;5.78;3.42;;;;;;;20.28;78.82;64097.97;5131258;28;20435;-82
2023/05/29 10:59:59;;;;;;;4.90;3.78;;;;;;;19.71;94.28;64036.41;5130673;28;20358;-78
2023/05/29 11:02:27;;;;;;;6.40;4.15;;;;;;;19.24;96.58;63990.47;5114012;28;20215;-79
2023/05/29 11:05:19;;;;;;;3.95;3.65;;;;;;;18.97;100.00;63959.75;5111731;28;20376;-77
2023/05/29 11:07:58;;;;;;;5.20;3.95;;;;;;;18.61;100.00;63921.69;5110643;28;20233;-78
2023/05/29 11:10:56;;;;;;;4.18;3.90;;;;;;;18.50;100.00;63908.16;5110520;28;20222;-79
2023/05/29 11:13:28;;;;;;;4.65;4.20;;;;;;;18.47;100.00;63904.53;5110543;28;20225;-78
2023/05/29 11:16:36;;;;;;;4.53;4.13;;;;;;;18.40;100.00;63900.88;5109402;28;20211;-79
2023/05/29 11:19:09;;;;;;;5.18;4.60;;;;;;;18.52;100.00;63915.41;5112184;28;20277;-79
2023/05/29 11:21:54;;;;;;;5.28;4.72;;;;;;;18.71;100.00;63932.13;5110788;28;20230;-79
2023/05/29 11:24:24;;;;;;;5.38;4.10;;;;;;;18.91;100.00;63953.50;5110726;28;20191;-78
2023/05/29 11:26:52;;;;;;;4.90;4.45;;;;;;;19.10;100.00;63970.72;5111014;28;20218;-77
2023/05/29 11:29:23;;;;;;;4.00;3.80;;;;;;;19.25;100.00;63986.38;5117367;28;20203;-79
2023/05/29 11:31:57;;;;;;;3.83;3.58;;;;;;;19.40;100.00;64007.19;5131649;28;20211;-80
2023/05/29 11:34:29;;;;;;;3.50;3.20;;;;;;;19.47;100.00;64014.47;5132671;28;20370;-77
2023/05/29 11:36:58;;;;;;;5.57;3.50;;;;;;;19.56;100.00;64023.34;5130116;28;20282;-76